sensor_id;sensor_type;location;lat;lon;timestamp;temperature;humidity
22623;DHT22;11478;51.094;7.030;2022-11-15T00:01:14;10.30;99.90
22623;DHT22;11478;51.094;7.030;2022-11-15T00:03:54;10.40;99.90
22623;DHT22;11478;51.094;7.030;2022-11-15T00:06:32;10.40;99.90
22623;DHT22;11478;51.094;7.030;2022-11-15T00:09:02;10.40;99.90
22623;DHT22;11478;51.094;7.030;2022-11-15T00:11:34;10.50;99.90
22623;DHT22;11478;51.094;7.030;2022-11-15T00:14:03;10.50;99.90
22623;DHT22;11478;51.094;7.030;2022-11-15T00:16:34;10.50;99.90
22623;DHT22;11478;51.094;7.030;2022-11-15T00:19:11;10.50;99.90
22623;DHT22;11478;51.094;7.030;2022-11-15T00:21:42;10.50;99.90
22623;DHT22;11478;51.094;7.030;2022-11-15T00:24:10;10.50;99.90
22623;DHT22;11478;51.094;7.030;2022-11-15T00:26:36;10.50;99.90
22623;DHT22;11478;51.094;7.030;2022-11-15T00:31:41;10.50;99.90
22623;DHT22;11478;51.094;7.030;2022-11-15T00:41:53;10.40;99.90
22623;DHT22;11478;51.094;7.030;2022-11-15T00:44:18;10.40;99.90
22623;DHT22;11478;51.094;7.030;2022-11-15T00:46:44;10.40;99.90
22623;DHT22;11478;51.094;7.030;2022-11-15T00:49:10;10.30;99.90
22623;DHT22;11478;51.094;7.030;2022-11-15T00:51:53;10.30;99.90
22623;DHT22;11478;51.094;7.030;2022-11-15T00:54:24;10.30;99.90
22623;DHT22;11478;51.094;7.030;2022-11-15T00:57:01;10.40;99.90
22623;DHT22;11478;51.094;7.030;2022-11-15T00:59:34;10.40;99.90
22623;DHT22;11478;51.094;7.030;2022-11-15T01:02:26;10.50;99.90
22623;DHT22;11478;51.094;7.030;2022-11-15T01:04:55;10.50;99.90
22623;DHT22;11478;51.094;7.030;2022-11-15T01:07:27;10.60;99.90
22623;DHT22;11478;51.094;7.030;2022-11-15T01:12:31;10.80;99.90
22623;DHT22;11478;51.094;7.030;2022-11-15T01:15:10;10.80;99.90
22623;DHT22;11478;51.094;7.030;2022-11-15T01:17:42;10.80;99.90
22623;DHT22;11478;51.094;7.030;2022-11-15T01:25:26;10.60;99.90
22623;DHT22;11478;51.094;7.030;2022-11-15T01:27:52;10.60;99.90
22623;DHT22;11478;51.094;7.030;2022-11-15T01:30:20;10.60;99.90
22623;DHT22;11478;51.094;7.030;2022-11-15T01:38:21;10.70;99.90
22623;DHT22;11478;51.094;7.030;2022-11-15T01:41:29;10.70;99.90
22623;DHT22;11478;51.094;7.030;2022-11-15T01:46:37;10.60;99.90
22623;DHT22;11478;51.094;7.030;2022-11-15T01:49:15;10.70;99.90
22623;DHT22;11478;51.094;7.030;2022-11-15T01:51:51;10.70;99.90
22623;DHT22;11478;51.094;7.030;2022-11-15T01:54:20;10.90;99.90
22623;DHT22;11478;51.094;7.030;2022-11-15T02:04:41;10.90;99.90
22623;DHT22;11478;51.094;7.030;2022-11-15T02:07:34;10.90;99.90
22623;DHT22;11478;51.094;7.030;2022-11-15T02:21:06;11.00;99.90
22623;DHT22;11478;51.094;7.030;2022-11-15T02:24:00;11.10;99.90
22623;DHT22;11478;51.094;7.030;2022-11-15T02:48:08;11.10;99.90
22623;DHT22;11478;51.094;7.030;2022-11-15T02:50:37;11.10;99.90
22623;DHT22;11478;51.094;7.030;2022-11-15T02:53:07;11.00;99.90
22623;DHT22;11478;51.094;7.030;2022-11-15T02:55:40;10.90;99.90
22623;DHT22;11478;51.094;7.030;2022-11-15T03:07:02;10.90;99.90
22623;DHT22;11478;51.094;7.030;2022-11-15T03:09:51;10.90;99.90
22623;DHT22;11478;51.094;7.030;2022-11-15T03:12:36;10.80;99.90
22623;DHT22;11478;51.094;7.030;2022-11-15T03:15:31;10.70;99.90
22623;DHT22;11478;51.094;7.030;2022-11-15T03:18:32;10.70;99.90
22623;DHT22;11478;51.094;7.030;2022-11-15T03:21:46;10.70;99.90
22623;DHT22;11478;51.094;7.030;2022-11-15T03:24:14;10.70;99.90
22623;DHT22;11478;51.094;7.030;2022-11-15T03:26:55;10.60;99.90
22623;DHT22;11478;51.094;7.030;2022-11-15T03:29:45;10.60;99.90
22623;DHT22;11478;51.094;7.030;2022-11-15T03:32:18;10.60;99.90
22623;DHT22;11478;51.094;7.030;2022-11-15T03:34:49;10.60;99.90
22623;DHT22;11478;51.094;7.030;2022-11-15T03:37:22;10.50;99.90
22623;DHT22;11478;51.094;7.030;2022-11-15T03:40:03;10.60;99.90
22623;DHT22;11478;51.094;7.030;2022-11-15T03:45:57;10.70;99.90
22623;DHT22;11478;51.094;7.030;2022-11-15T03:49:00;10.70;99.90
22623;DHT22;11478;51.094;7.030;2022-11-15T03:51:29;10.80;99.90
22623;DHT22;11478;51.094;7.030;2022-11-15T03:53:57;10.90;99.90
22623;DHT22;11478;51.094;7.030;2022-11-15T03:56:31;11.00;99.90
22623;DHT22;11478;51.094;7.030;2022-11-15T03:58:57;11.10;99.90
22623;DHT22;11478;51.094;7.030;2022-11-15T04:01:23;11.20;99.90
22623;DHT22;11478;51.094;7.030;2022-11-15T04:03:51;11.30;99.90
22623;DHT22;11478;51.094;7.030;2022-11-15T04:06:23;11.30;99.90
22623;DHT22;11478;51.094;7.030;2022-11-15T04:14:05;11.40;99.90
22623;DHT22;11478;51.094;7.030;2022-11-15T04:16:34;11.40;99.90
22623;DHT22;11478;51.094;7.030;2022-11-15T04:19:03;11.50;99.90
22623;DHT22;11478;51.094;7.030;2022-11-15T04:21:53;11.50;99.90
22623;DHT22;11478;51.094;7.030;2022-11-15T04:24:37;11.50;99.90
22623;DHT22;11478;51.094;7.030;2022-11-15T04:27:12;11.60;99.90
22623;DHT22;11478;51.094;7.030;2022-11-15T04:29:53;11.60;99.90
22623;DHT22;11478;51.094;7.030;2022-11-15T04:32:31;11.60;99.90
22623;DHT22;11478;51.094;7.030;2022-11-15T04:34:57;11.60;99.90
22623;DHT22;11478;51.094;7.030;2022-11-15T04:37:23;11.60;99.90
22623;DHT22;11478;51.094;7.030;2022-11-15T04:39:49;11.60;99.90
22623;DHT22;11478;51.094;7.030;2022-11-15T04:42:20;11.60;99.90
22623;DHT22;11478;51.094;7.030;2022-11-15T04:44:46;11.70;99.90
22623;DHT22;11478;51.094;7.030;2022-11-15T04:47:19;11.70;99.90
22623;DHT22;11478;51.094;7.030;2022-11-15T04:49:48;11.70;99.90
22623;DHT22;11478;51.094;7.030;2022-11-15T04:52:15;11.80;99.90
22623;DHT22;11478;51.094;7.030;2022-11-15T04:54:41;11.80;99.90
22623;DHT22;11478;51.094;7.030;2022-11-15T04:57:31;11.80;99.90
22623;DHT22;11478;51.094;7.030;2022-11-15T05:00:08;11.80;99.90
22623;DHT22;11478;51.094;7.030;2022-11-15T05:02:38;11.80;99.90
22623;DHT22;11478;51.094;7.030;2022-11-15T05:05:24;11.90;99.90
22623;DHT22;11478;51.094;7.030;2022-11-15T05:07:54;11.90;99.90
22623;DHT22;11478;51.094;7.030;2022-11-15T05:10:25;11.90;99.90
22623;DHT22;11478;51.094;7.030;2022-11-15T05:13:00;11.90;99.90
22623;DHT22;11478;51.094;7.030;2022-11-15T05:15:29;11.90;99.90
22623;DHT22;11478;51.094;7.030;2022-11-15T05:18:19;12.00;99.90
22623;DHT22;11478;51.094;7.030;2022-11-15T05:20:45;12.00;99.90
22623;DHT22;11478;51.094;7.030;2022-11-15T05:23:15;12.00;99.90
22623;DHT22;11478;51.094;7.030;2022-11-15T05:25:41;12.00;99.90
22623;DHT22;11478;51.094;7.030;2022-11-15T05:28:14;12.00;99.90
22623;DHT22;11478;51.094;7.030;2022-11-15T05:30:42;12.00;99.90
22623;DHT22;11478;51.094;7.030;2022-11-15T05:33:08;12.00;99.90
22623;DHT22;11478;51.094;7.030;2022-11-15T05:35:41;12.10;99.90
22623;DHT22;11478;51.094;7.030;2022-11-15T05:38:07;12.10;99.90
22623;DHT22;11478;51.094;7.030;2022-11-15T05:40:44;12.10;99.90
22623;DHT22;11478;51.094;7.030;2022-11-15T05:43:10;12.10;99.90
22623;DHT22;11478;51.094;7.030;2022-11-15T05:45:36;12.00;99.90
22623;DHT22;11478;51.094;7.030;2022-11-15T05:48:06;12.10;99.90
22623;DHT22;11478;51.094;7.030;2022-11-15T05:50:43;12.10;99.90
22623;DHT22;11478;51.094;7.030;2022-11-15T05:53:14;12.10;99.90
22623;DHT22;11478;51.094;7.030;2022-11-15T05:55:41;12.10;99.90
22623;DHT22;11478;51.094;7.030;2022-11-15T05:58:07;12.00;99.90
22623;DHT22;11478;51.094;7.030;2022-11-15T06:00:34;12.00;99.90
22623;DHT22;11478;51.094;7.030;2022-11-15T06:02:59;12.00;99.90
22623;DHT22;11478;51.094;7.030;2022-11-15T06:05:36;12.00;99.90
22623;DHT22;11478;51.094;7.030;2022-11-15T07:36:10;11.00;99.90
22623;DHT22;11478;51.094;7.030;2022-11-15T07:38:52;10.90;99.90
22623;DHT22;11478;51.094;7.030;2022-11-15T07:41:29;10.80;99.90
22623;DHT22;11478;51.094;7.030;2022-11-15T07:54:34;10.40;99.90
22623;DHT22;11478;51.094;7.030;2022-11-15T13:15:30;13.40;99.90
22623;DHT22;11478;51.094;7.030;2022-11-15T13:17:56;13.40;99.90
22623;DHT22;11478;51.094;7.030;2022-11-15T13:23:40;13.40;99.90
22623;DHT22;11478;51.094;7.030;2022-11-15T13:29:39;13.40;99.90
22623;DHT22;11478;51.094;7.030;2022-11-15T13:39:31;13.50;99.90
22623;DHT22;11478;51.094;7.030;2022-11-15T13:45:24;13.60;99.90
22623;DHT22;11478;51.094;7.030;2022-11-15T13:51:05;13.50;99.90
22623;DHT22;11478;51.094;7.030;2022-11-15T13:59:52;13.50;99.90
22623;DHT22;11478;51.094;7.030;2022-11-15T14:12:29;13.50;99.90
22623;DHT22;11478;51.094;7.030;2022-11-15T14:34:43;13.30;99.90
22623;DHT22;11478;51.094;7.030;2022-11-15T14:37:22;13.40;99.90
22623;DHT22;11478;51.094;7.030;2022-11-15T14:46:27;13.30;99.90
22623;DHT22;11478;51.094;7.030;2022-11-15T14:48:54;13.20;99.90
22623;DHT22;11478;51.094;7.030;2022-11-15T14:51:20;13.20;99.90
22623;DHT22;11478;51.094;7.030;2022-11-15T15:00:29;13.20;99.90
22623;DHT22;11478;51.094;7.030;2022-11-15T15:03:28;13.20;99.90
22623;DHT22;11478;51.094;7.030;2022-11-15T15:06:11;13.20;99.90
22623;DHT22;11478;51.094;7.030;2022-11-15T15:08:42;13.30;99.90
22623;DHT22;11478;51.094;7.030;2022-11-15T15:11:38;13.30;99.90
22623;DHT22;11478;51.094;7.030;2022-11-15T15:14:08;13.20;99.90
22623;DHT22;11478;51.094;7.030;2022-11-15T15:16:42;13.20;99.90
22623;DHT22;11478;51.094;7.030;2022-11-15T15:19:08;13.20;99.90
22623;DHT22;11478;51.094;7.030;2022-11-15T15:28:01;13.10;99.90
22623;DHT22;11478;51.094;7.030;2022-11-15T15:30:50;13.00;99.90
22623;DHT22;11478;51.094;7.030;2022-11-15T15:47:19;12.80;99.90
22623;DHT22;11478;51.094;7.030;2022-11-15T15:49:46;12.70;99.90
22623;DHT22;11478;51.094;7.030;2022-11-15T15:55:17;12.50;99.90
22623;DHT22;11478;51.094;7.030;2022-11-15T15:57:50;12.40;99.90
22623;DHT22;11478;51.094;7.030;2022-11-15T16:00:19;12.30;99.90
22623;DHT22;11478;51.094;7.030;2022-11-15T16:03:07;12.30;99.90
22623;DHT22;11478;51.094;7.030;2022-11-15T16:05:51;12.20;99.90
22623;DHT22;11478;51.094;7.030;2022-11-15T16:08:22;12.20;99.90
22623;DHT22;11478;51.094;7.030;2022-11-15T16:10:54;12.20;99.90
22623;DHT22;11478;51.094;7.030;2022-11-15T16:13:20;12.20;99.90
22623;DHT22;11478;51.094;7.030;2022-11-15T16:15:53;12.30;99.90
22623;DHT22;11478;51.094;7.030;2022-11-15T16:18:19;12.30;99.90
22623;DHT22;11478;51.094;7.030;2022-11-15T16:20:48;12.30;99.90
22623;DHT22;11478;51.094;7.030;2022-11-15T16:23:17;12.40;99.90
22623;DHT22;11478;51.094;7.030;2022-11-15T16:25:52;12.30;99.90
22623;DHT22;11478;51.094;7.030;2022-11-15T16:28:31;12.40;99.90
22623;DHT22;11478;51.094;7.030;2022-11-15T16:31:05;12.40;99.90
22623;DHT22;11478;51.094;7.030;2022-11-15T16:33:40;12.50;99.90
22623;DHT22;11478;51.094;7.030;2022-11-15T16:36:20;12.50;99.90
22623;DHT22;11478;51.094;7.030;2022-11-15T16:38:46;12.60;99.90
22623;DHT22;11478;51.094;7.030;2022-11-15T16:41:12;12.50;99.90
22623;DHT22;11478;51.094;7.030;2022-11-15T16:43:41;12.60;99.90
22623;DHT22;11478;51.094;7.030;2022-11-15T16:46:17;12.60;99.90
22623;DHT22;11478;51.094;7.030;2022-11-15T16:49:13;12.60;99.90
22623;DHT22;11478;51.094;7.030;2022-11-15T16:51:45;12.70;99.90
22623;DHT22;11478;51.094;7.030;2022-11-15T16:54:23;12.70;99.90
22623;DHT22;11478;51.094;7.030;2022-11-15T16:56:49;12.70;99.90
22623;DHT22;11478;51.094;7.030;2022-11-15T16:59:37;12.70;99.90
22623;DHT22;11478;51.094;7.030;2022-11-15T17:02:13;12.70;99.90
22623;DHT22;11478;51.094;7.030;2022-11-15T17:04:57;12.70;99.90
22623;DHT22;11478;51.094;7.030;2022-11-15T17:07:38;12.80;99.90
22623;DHT22;11478;51.094;7.030;2022-11-15T17:10:28;12.80;99.90
22623;DHT22;11478;51.094;7.030;2022-11-15T17:12:57;12.80;99.90
22623;DHT22;11478;51.094;7.030;2022-11-15T17:15:27;12.90;99.90
22623;DHT22;11478;51.094;7.030;2022-11-15T17:17:56;12.90;99.90
22623;DHT22;11478;51.094;7.030;2022-11-15T17:20:23;12.90;99.90
22623;DHT22;11478;51.094;7.030;2022-11-15T17:22:50;12.90;99.90
22623;DHT22;11478;51.094;7.030;2022-11-15T17:25:17;12.90;99.90
22623;DHT22;11478;51.094;7.030;2022-11-15T17:27:43;12.90;99.90
22623;DHT22;11478;51.094;7.030;2022-11-15T17:30:13;12.90;99.90
22623;DHT22;11478;51.094;7.030;2022-11-15T17:32:44;12.90;99.90
22623;DHT22;11478;51.094;7.030;2022-11-15T17:35:12;12.90;99.90
22623;DHT22;11478;51.094;7.030;2022-11-15T17:37:40;12.90;99.90
22623;DHT22;11478;51.094;7.030;2022-11-15T17:40:20;12.90;99.90
22623;DHT22;11478;51.094;7.030;2022-11-15T17:42:46;12.90;99.90
22623;DHT22;11478;51.094;7.030;2022-11-15T17:45:23;12.90;99.90
22623;DHT22;11478;51.094;7.030;2022-11-15T17:47:52;13.00;99.90
22623;DHT22;11478;51.094;7.030;2022-11-15T17:50:19;12.90;99.90
22623;DHT22;11478;51.094;7.030;2022-11-15T17:52:53;13.00;99.90
22623;DHT22;11478;51.094;7.030;2022-11-15T18:14:15;12.80;99.90
22623;DHT22;11478;51.094;7.030;2022-11-15T18:16:47;12.70;99.90
22623;DHT22;11478;51.094;7.030;2022-11-15T18:19:25;12.70;99.90
22623;DHT22;11478;51.094;7.030;2022-11-15T18:22:08;12.60;99.90
22623;DHT22;11478;51.094;7.030;2022-11-15T18:24:49;12.50;99.90
22623;DHT22;11478;51.094;7.030;2022-11-15T18:27:15;12.40;99.90
22623;DHT22;11478;51.094;7.030;2022-11-15T18:40:06;12.10;99.90
22623;DHT22;11478;51.094;7.030;2022-11-15T18:42:36;12.00;99.90
22623;DHT22;11478;51.094;7.030;2022-11-15T18:48:07;11.90;99.90
22623;DHT22;11478;51.094;7.030;2022-11-15T18:50:46;11.90;99.90
22623;DHT22;11478;51.094;7.030;2022-11-15T18:53:52;11.80;99.90
22623;DHT22;11478;51.094;7.030;2022-11-15T18:56:47;11.80;99.90
22623;DHT22;11478;51.094;7.030;2022-11-15T18:59:24;11.80;99.90
22623;DHT22;11478;51.094;7.030;2022-11-15T19:01:52;11.80;99.90
22623;DHT22;11478;51.094;7.030;2022-11-15T19:04:20;11.80;99.90
22623;DHT22;11478;51.094;7.030;2022-11-15T19:06:54;11.70;99.90
22623;DHT22;11478;51.094;7.030;2022-11-15T19:09:23;11.70;99.90
22623;DHT22;11478;51.094;7.030;2022-11-15T19:11:57;11.70;99.90
22623;DHT22;11478;51.094;7.030;2022-11-15T19:14:24;11.60;99.90
22623;DHT22;11478;51.094;7.030;2022-11-15T19:17:00;11.60;99.90
22623;DHT22;11478;51.094;7.030;2022-11-15T19:19:27;11.60;99.90
22623;DHT22;11478;51.094;7.030;2022-11-15T19:21:53;11.60;99.90
22623;DHT22;11478;51.094;7.030;2022-11-15T19:24:19;11.50;99.90
22623;DHT22;11478;51.094;7.030;2022-11-15T19:27:04;11.50;99.90
22623;DHT22;11478;51.094;7.030;2022-11-15T19:29:35;11.50;99.90
22623;DHT22;11478;51.094;7.030;2022-11-15T19:32:01;11.50;99.90
22623;DHT22;11478;51.094;7.030;2022-11-15T19:34:29;11.50;99.90
22623;DHT22;11478;51.094;7.030;2022-11-15T19:37:16;11.50;99.90
22623;DHT22;11478;51.094;7.030;2022-11-15T19:39:42;11.50;99.90
22623;DHT22;11478;51.094;7.030;2022-11-15T19:42:12;11.50;99.90
22623;DHT22;11478;51.094;7.030;2022-11-15T19:44:40;11.50;99.90
22623;DHT22;11478;51.094;7.030;2022-11-15T19:47:08;11.50;99.90
22623;DHT22;11478;51.094;7.030;2022-11-15T19:49:37;11.50;99.90
22623;DHT22;11478;51.094;7.030;2022-11-15T19:52:14;11.50;99.90
22623;DHT22;11478;51.094;7.030;2022-11-15T19:57:33;11.40;99.90
22623;DHT22;11478;51.094;7.030;2022-11-15T20:00:07;11.40;99.90
22623;DHT22;11478;51.094;7.030;2022-11-15T20:02:45;11.40;99.90
22623;DHT22;11478;51.094;7.030;2022-11-15T20:05:31;11.40;99.90
22623;DHT22;11478;51.094;7.030;2022-11-15T20:08:10;11.40;99.90
22623;DHT22;11478;51.094;7.030;2022-11-15T20:10:38;11.40;99.90
22623;DHT22;11478;51.094;7.030;2022-11-15T20:13:15;11.40;99.90
22623;DHT22;11478;51.094;7.030;2022-11-15T20:15:42;11.50;99.90
22623;DHT22;11478;51.094;7.030;2022-11-15T20:18:08;11.50;99.90
22623;DHT22;11478;51.094;7.030;2022-11-15T20:20:36;11.50;99.90
22623;DHT22;11478;51.094;7.030;2022-11-15T20:23:03;11.50;99.90
22623;DHT22;11478;51.094;7.030;2022-11-15T20:25:45;11.50;99.90
22623;DHT22;11478;51.094;7.030;2022-11-15T20:28:21;11.40;99.90
22623;DHT22;11478;51.094;7.030;2022-11-15T20:30:57;11.40;99.90
22623;DHT22;11478;51.094;7.030;2022-11-15T20:33:31;11.40;99.90
22623;DHT22;11478;51.094;7.030;2022-11-15T20:36:24;11.40;99.90
22623;DHT22;11478;51.094;7.030;2022-11-15T20:39:19;11.50;99.90
22623;DHT22;11478;51.094;7.030;2022-11-15T20:42:07;11.50;99.90
22623;DHT22;11478;51.094;7.030;2022-11-15T20:44:33;11.50;99.90
22623;DHT22;11478;51.094;7.030;2022-11-15T20:47:01;11.50;99.90
22623;DHT22;11478;51.094;7.030;2022-11-15T20:49:30;11.40;99.90
22623;DHT22;11478;51.094;7.030;2022-11-15T20:52:03;11.40;99.90
22623;DHT22;11478;51.094;7.030;2022-11-15T20:54:29;11.40;99.90
22623;DHT22;11478;51.094;7.030;2022-11-15T20:56:55;11.40;99.90
22623;DHT22;11478;51.094;7.030;2022-11-15T20:59:25;11.40;99.90
22623;DHT22;11478;51.094;7.030;2022-11-15T21:02:13;11.40;99.90
22623;DHT22;11478;51.094;7.030;2022-11-15T21:04:44;11.50;99.90
22623;DHT22;11478;51.094;7.030;2022-11-15T21:07:18;11.50;99.90
22623;DHT22;11478;51.094;7.030;2022-11-15T21:09:46;11.40;99.90
22623;DHT22;11478;51.094;7.030;2022-11-15T21:12:48;11.40;99.90
22623;DHT22;11478;51.094;7.030;2022-11-15T21:15:18;11.40;99.90
22623;DHT22;11478;51.094;7.030;2022-11-15T21:17:44;11.40;99.90
22623;DHT22;11478;51.094;7.030;2022-11-15T21:20:11;11.40;99.90
22623;DHT22;11478;51.094;7.030;2022-11-15T21:22:41;11.40;99.90
22623;DHT22;11478;51.094;7.030;2022-11-15T21:25:09;11.40;99.90
22623;DHT22;11478;51.094;7.030;2022-11-15T21:28:02;11.30;99.90
22623;DHT22;11478;51.094;7.030;2022-11-15T21:30:32;11.30;99.90
22623;DHT22;11478;51.094;7.030;2022-11-15T21:36:12;11.30;99.90
22623;DHT22;11478;51.094;7.030;2022-11-15T21:38:41;11.30;99.90
22623;DHT22;11478;51.094;7.030;2022-11-15T21:41:07;11.30;99.90
22623;DHT22;11478;51.094;7.030;2022-11-15T21:43:46;11.30;99.90
22623;DHT22;11478;51.094;7.030;2022-11-15T21:46:39;11.30;99.90
22623;DHT22;11478;51.094;7.030;2022-11-15T21:49:25;11.30;99.90
22623;DHT22;11478;51.094;7.030;2022-11-15T21:51:54;11.20;99.90
22623;DHT22;11478;51.094;7.030;2022-11-15T21:54:22;11.30;99.90
22623;DHT22;11478;51.094;7.030;2022-11-15T21:56:48;11.30;99.90
22623;DHT22;11478;51.094;7.030;2022-11-15T21:59:27;11.30;99.90
22623;DHT22;11478;51.094;7.030;2022-11-15T22:01:53;11.20;99.90
22623;DHT22;11478;51.094;7.030;2022-11-15T22:04:42;11.20;99.90
22623;DHT22;11478;51.094;7.030;2022-11-15T22:07:08;11.20;99.90
22623;DHT22;11478;51.094;7.030;2022-11-15T22:09:38;11.20;99.90
22623;DHT22;11478;51.094;7.030;2022-11-15T22:12:06;11.20;99.90
22623;DHT22;11478;51.094;7.030;2022-11-15T22:14:32;11.20;99.90
22623;DHT22;11478;51.094;7.030;2022-11-15T22:17:01;11.20;99.90
22623;DHT22;11478;51.094;7.030;2022-11-15T22:19:31;11.20;99.90
22623;DHT22;11478;51.094;7.030;2022-11-15T22:21:57;11.20;99.90
22623;DHT22;11478;51.094;7.030;2022-11-15T22:24:26;11.20;99.90
22623;DHT22;11478;51.094;7.030;2022-11-15T22:26:52;11.20;99.90
22623;DHT22;11478;51.094;7.030;2022-11-15T22:29:27;11.20;99.90
22623;DHT22;11478;51.094;7.030;2022-11-15T22:31:54;11.20;99.90
22623;DHT22;11478;51.094;7.030;2022-11-15T22:34:21;11.20;99.90
22623;DHT22;11478;51.094;7.030;2022-11-15T22:36:49;11.20;99.90
22623;DHT22;11478;51.094;7.030;2022-11-15T22:39:15;11.20;99.90
22623;DHT22;11478;51.094;7.030;2022-11-15T22:41:43;11.20;99.90
22623;DHT22;11478;51.094;7.030;2022-11-15T22:44:08;11.20;99.90
22623;DHT22;11478;51.094;7.030;2022-11-15T22:46:39;11.20;99.90
22623;DHT22;11478;51.094;7.030;2022-11-15T22:49:04;11.20;99.90
22623;DHT22;11478;51.094;7.030;2022-11-15T22:51:41;11.20;99.90
22623;DHT22;11478;51.094;7.030;2022-11-15T22:54:10;11.20;99.90
22623;DHT22;11478;51.094;7.030;2022-11-15T22:56:45;11.20;99.90
22623;DHT22;11478;51.094;7.030;2022-11-15T22:59:21;11.20;99.90
22623;DHT22;11478;51.094;7.030;2022-11-15T23:01:50;11.10;99.90
22623;DHT22;11478;51.094;7.030;2022-11-15T23:04:18;11.10;99.90
22623;DHT22;11478;51.094;7.030;2022-11-15T23:06:44;11.20;99.90
22623;DHT22;11478;51.094;7.030;2022-11-15T23:09:10;11.10;99.90
22623;DHT22;11478;51.094;7.030;2022-11-15T23:11:37;11.20;99.90
22623;DHT22;11478;51.094;7.030;2022-11-15T23:14:22;11.20;99.90
22623;DHT22;11478;51.094;7.030;2022-11-15T23:16:50;11.20;99.90
22623;DHT22;11478;51.094;7.030;2022-11-15T23:19:16;11.20;99.90
22623;DHT22;11478;51.094;7.030;2022-11-15T23:21:45;11.20;99.90
22623;DHT22;11478;51.094;7.030;2022-11-15T23:24:30;11.20;99.90
22623;DHT22;11478;51.094;7.030;2022-11-15T23:27:05;11.20;99.90
22623;DHT22;11478;51.094;7.030;2022-11-15T23:29:36;11.20;99.90
22623;DHT22;11478;51.094;7.030;2022-11-15T23:32:22;11.20;99.90
22623;DHT22;11478;51.094;7.030;2022-11-15T23:35:07;11.20;99.90
22623;DHT22;11478;51.094;7.030;2022-11-15T23:37:41;11.20;99.90
22623;DHT22;11478;51.094;7.030;2022-11-15T23:40:07;11.20;99.90
22623;DHT22;11478;51.094;7.030;2022-11-15T23:42:33;11.20;99.90
22623;DHT22;11478;51.094;7.030;2022-11-15T23:44:59;11.20;99.90
22623;DHT22;11478;51.094;7.030;2022-11-15T23:47:27;11.20;99.90
22623;DHT22;11478;51.094;7.030;2022-11-15T23:49:55;11.20;99.90
22623;DHT22;11478;51.094;7.030;2022-11-15T23:52:22;11.20;99.90
22623;DHT22;11478;51.094;7.030;2022-11-15T23:54:51;11.20;99.90
22623;DHT22;11478;51.094;7.030;2022-11-15T23:57:22;11.20;99.90
22623;DHT22;11478;51.094;7.030;2022-11-15T23:59:52;11.20;99.90
